Ship Status Report: callsign AMOUK29

sailwx.info

Track history (hours):
 
Tides and Currents Weather Stations Pressure Air Temp Water Temp Dewpoint Dewpoint Depression Visibility Wind Speed Wind Dir Waves Ship Positions

Callsign AMOUK29 (name unknown)

Last reported at 2015-Jan-27 05:00 UTC. Time now 2015-Jan-27 08:25 UTC.
Position N 54°36' W 005°54'.

Barometer 1026.9 mb
Air temperature 5.9 ° C
Dewpoint 4.4 ° C

Date/timePositionNaut miles runAvg speedWind from/ knotsBaromVisibWave heightAir tempDewpointWater temp
2015-Jan-27 05:00N 54°36' W 005°54'0 0.0 1026.9 5.9 4.4
2015-Jan-27 04:00N 54°36' W 005°54'0 0.0 1027.3 6.1 4.3
2015-Jan-27 03:00N 54°36' W 005°54'0 0.0 1027.8 6.2 4.2
2015-Jan-27 02:00N 54°36' W 005°54'0 0.0 1028.0 6.1 4.2
2015-Jan-27 01:00N 54°36' W 005°54'0 0.0 1027.8 6.1 3.9
2015-Jan-27 00:00N 54°36' W 005°54'0 0.0 1028.3 5.8 3.6
2015-Jan-26 23:00N 54°36' W 005°54'0 0.0 1028.3 5.8 3.2
2015-Jan-26 22:00N 54°36' W 005°54'0 0.0 1028.1 5.6 3.1
2015-Jan-26 21:00N 54°36' W 005°54'0 0.0 1028.4 5.2 3.1
2015-Jan-26 20:00N 54°36' W 005°54'0 0.0 1028.3 5.8 3.2
2015-Jan-26 18:00N 54°36' W 005°54'0 0.0 1027.1 6.8 2.1
2015-Jan-26 17:00N 54°36' W 005°54'0 0.0 1026.3 6.9 1.9
2015-Jan-26 16:00N 54°36' W 005°54'0 0.0 1025.6 7.3 1.8
2015-Jan-26 15:00N 54°36' W 005°54'0 0.0 1025.0 7.4 2.3
2015-Jan-26 14:00N 54°36' W 005°54'0 0.0 1024.8 7.3 2.1
2015-Jan-26 12:00N 54°36' W 005°54'0 0.0 1024.5 6.7 1.8
2015-Jan-26 09:00N 54°36' W 005°54'0 0.0 1022.4 5.4 1.2
2015-Jan-26 08:00N 54°36' W 005°54'0 0.0 1022.2 5.1 1.4
2015-Jan-26 07:00N 54°36' W 005°54'0 0.0 1021.5 5.6 1.4
2015-Jan-26 06:00N 54°36' W 005°54'0 0.0 1021.3 5.6 1.4
2015-Jan-26 05:00N 54°36' W 005°54'0 0.0 1020.7 5.9 1.5
2015-Jan-26 04:00N 54°36' W 005°54'0 0.0 1020.4 6.1 2.4
2015-Jan-26 03:00N 54°36' W 005°54'0 0.0 1020.1 7.1 3.5
2015-Jan-26 02:00N 54°36' W 005°54'0 0.0 1019.8 7.8 3.3
2015-Jan-26 01:00N 54°36' W 005°54'0 0.0 1019.5 8.1 4.4
2015-Jan-26 00:00N 54°36' W 005°54'0 0.0 1019.3 8.3 6.2
2015-Jan-25 23:00N 54°36' W 005°54'0 0.0 1019.3 8.7 6.3
2015-Jan-25 22:00N 54°36' W 005°54'0 0.0 1019.0 8.9 6.5
2015-Jan-25 21:00N 54°36' W 005°54'0 0.0 1018.8 9.6 8.1
2015-Jan-25 20:00N 54°36' W 005°54'0 0.0 1018.6 9.7 8.2
2015-Jan-25 19:00N 54°36' W 005°54'0 0.0 1018.8 10.3 8.0
2015-Jan-25 17:00N 54°36' W 005°54'0 0.0 1018.8 10.9 7.6
2015-Jan-25 15:00N 54°36' W 005°54'0 0.0 1019.5 11.0 7.8
2015-Jan-25 14:00N 54°36' W 005°54'0 0.0 1019.6 10.3 7.8
2015-Jan-25 13:00N 54°36' W 005°54'0 0.0 1021.0 9.3 7.2
2015-Jan-25 06:00N 54°36' W 005°54'0 0.0 1025.0 6.5 3.6
2015-Jan-25 05:00N 54°36' W 005°54'0 0.0 1024.9 6.2 2.8
2015-Jan-25 02:00N 54°36' W 005°54'0 0.0 1026.1 5.7 1.9
2015-Jan-25 01:00N 54°36' W 005°54'0 0.0 1026.9 5.3 1.5
2015-Jan-25 00:00N 54°36' W 005°54'0 0.0 1027.3 5.2 1.3
2015-Jan-24 23:00N 54°36' W 005°54'0 0.0 1027.7 5.1 1.3
2015-Jan-24 22:00N 54°36' W 005°54'0 0.0 1028.4 5.1 1.2
2015-Jan-24 21:00N 54°36' W 005°54'0 0.0 1028.6 5.3 1.4
2015-Jan-24 20:00N 54°36' W 005°54'0 0.0 1029.1 5.3 1.3
2015-Jan-24 19:00N 54°36' W 005°54'0 0.0 1028.9 5.3 1.4
2015-Jan-24 18:00N 54°36' W 005°54'0 0.0 1028.4 5.5 1.6
2015-Jan-24 16:00N 54°36' W 005°54'0 0.0 1027.5 6.2 1.8
2015-Jan-24 15:00N 54°36' W 005°54'0 0.0 1027.2 6.2 1.7
2015-Jan-24 14:00N 54°36' W 005°54'0 0.0 1027.2 5.8 1.0
2015-Jan-24 13:00N 54°36' W 005°54'0 0.0 1027.0 4.9 0.4
2015-Jan-24 12:00N 54°36' W 005°54'0 0.0 1026.6 4.7 0.4
2015-Jan-24 11:00N 54°36' W 005°54'0 0.0 1025.9 4.8-0.5
2015-Jan-24 05:00N 54°36' W 005°54'0 0.0 1021.7 2.9-0.3
2015-Jan-24 03:00N 54°36' W 005°54'0 0.0 1020.4 3.0-0.3
2015-Jan-24 02:00N 54°36' W 005°54'0 0.0 1019.5 3.2-0.5
2015-Jan-24 01:00N 54°36' W 005°54'0 0.0 1018.7 3.3-0.4
2015-Jan-23 22:00N 54°36' W 005°54'0 0.0 1016.2 4.2 0.5
2015-Jan-23 21:00N 54°36' W 005°54'0 0.0 1015.4 4.7 0.9
2015-Jan-23 20:00N 54°36' W 005°54'0 0.0 1014.9 5.3 1.1
2015-Jan-23 19:00N 54°36' W 005°54'0 0.0 1014.0 5.9 1.6
2015-Jan-23 18:00N 54°36' W 005°54'0 0.0 1013.2 6.9 3.1
2015-Jan-23 17:00N 54°36' W 005°54'0 0.0 1012.1 7.2 3.7
2015-Jan-23 16:00N 54°36' W 005°54'0 0.0 1011.1 8.0 6.8
2015-Jan-23 15:00N 54°36' W 005°54'0 0.0 1010.6 9.2 7.9
2015-Jan-23 14:00N 54°36' W 005°54'0 0.0 1010.8 9.1 7.5
2015-Jan-23 13:00N 54°36' W 005°54'0 0.0 1011.0 8.7 7.0
2015-Jan-23 12:00N 54°36' W 005°54'0 0.0 1012.0 7.8 6.2
2015-Jan-23 11:00N 54°36' W 005°54'0 0.0 1012.7 7.5 5.6
2015-Jan-23 10:00N 54°36' W 005°54'0 0.0 1013.0 6.7 5.0
2015-Jan-23 08:00N 54°36' W 005°54'0 0.0 1014.4 6.0 3.7
2015-Jan-23 07:00N 54°36' W 005°54'0 0.0 1015.4 5.8 3.2
2015-Jan-23 06:00N 54°36' W 005°54'0 0.0 1016.3 5.3 2.8
2015-Jan-23 04:00N 54°36' W 005°54'0 0.0 1017.9 4.3 1.9
2015-Jan-23 03:00N 54°36' W 005°54'0 0.0 1018.5 3.8 1.5
2015-Jan-23 02:00N 54°36' W 005°54'0 0.0 1019.5 3.0 0.8
2015-Jan-23 01:00N 54°36' W 005°54'0 0.0 1019.6 2.6 0.5
2015-Jan-23 00:00N 54°36' W 005°54'0 0.0 1020.4 2.8 0.5
2015-Jan-22 23:00N 54°36' W 005°54'0 0.0 1021.0 2.8 0.3
2015-Jan-22 21:00N 54°36' W 005°54'0 0.0 1021.6 3.4 0.2
2015-Jan-22 20:00N 54°36' W 005°54'0 0.0 1022.1 3.2 0.7
2015-Jan-22 18:00N 54°36' W 005°54'0 0.0 1021.6 4.3 1.5
2015-Jan-22 17:00N 54°36' W 005°54'0 0.0 1021.4 5.0 1.6
2015-Jan-22 16:00N 54°36' W 005°54'0 0.0 1021.0 5.9 1.6
2015-Jan-22 15:00N 54°36' W 005°54'0 0.0 1020.9 6.4 1.3
2015-Jan-22 14:00N 54°36' W 005°54'0 0.0 1020.6 6.6 0.4
2015-Jan-22 13:00N 54°36' W 005°54'0 0.0 1020.2 6.3 1.0
2015-Jan-22 12:00N 54°36' W 005°54'0 0.0 1020.9 3.7 0.5
2015-Jan-22 11:00N 54°36' W 005°54'0 0.0 1021.0 2.4 0.4
2015-Jan-22 09:00N 54°36' W 005°54'0 0.0 1019.7 1.1-1.2
2015-Jan-22 04:00N 54°36' W 005°54'0 0.0 1017.4 1.7 0.8
2015-Jan-22 03:00N 54°36' W 005°54'0 0.0 1016.9 1.9 1.0
2015-Jan-22 02:00N 54°36' W 005°54'0 0.0 1016.3 1.9 1.2
2015-Jan-22 01:00N 54°36' W 005°54'0 0.0 1015.8 1.7 1.1
2015-Jan-22 00:00N 54°36' W 005°54'0 0.0 1015.4 1.5 0.9
2015-Jan-21 23:00N 54°36' W 005°54'0 0.0 1015.2 1.3 0.7
2015-Jan-21 22:00N 54°36' W 005°54'0 0.0 1014.7 1.5 0.9
2015-Jan-21 18:00N 54°36' W 005°54'0 0.0 1012.1 2.2 1.1
2015-Jan-21 17:00N 54°36' W 005°54'0 0.0 1011.2 2.9 1.5
2015-Jan-21 16:00N 54°36' W 005°54'0 0.0 1010.4 3.0 0.6
2015-Jan-21 15:00N 54°36' W 005°54'0 0.0 1009.4 5.1 1.4
2015-Jan-21 14:00N 54°36' W 005°54'0 0.0 1009.1 4.8 2.1
2015-Jan-21 13:00N 54°36' W 005°54'0 0.0 1008.8 4.6 2.2
2015-Jan-21 12:00N 54°36' W 005°54'0 0.0 1008.5 4.2 2.3
2015-Jan-21 11:00N 54°36' W 005°54'0 0.0 1008.4 3.9 2.0
2015-Jan-21 10:00N 54°36' W 005°54'0 0.0 1007.8 4.4 2.2
2015-Jan-21 09:00N 54°36' W 005°54'0 0.0 1007.0 4.3 2.2
2015-Jan-21 06:00N 54°36' W 005°54'0 0.0 1004.7 4.0 2.3
2015-Jan-21 03:00N 54°36' W 005°54'0 0.0 1003.3 3.4 1.7
2015-Jan-21 02:00N 54°36' W 005°54'0 0.0 1003.0 3.4 1.8
2015-Jan-21 01:00N 54°36' W 005°54'0 0.0 1002.6 4.0 2.4
2015-Jan-21 00:00N 54°36' W 005°54'0 0.0 1002.4 3.7 2.3
2015-Jan-20 23:00N 54°36' W 005°54'0 0.0 1002.2 3.4 2.1
2015-Jan-20 22:00N 54°36' W 005°54'0 0.0 1002.0 3.3 1.9
2015-Jan-20 21:00N 54°36' W 005°54'0 0.0 1002.0 3.2 1.7
2015-Jan-20 20:00N 54°36' W 005°54'0 0.0 1001.9 3.5 1.7
2015-Jan-20 19:00N 54°36' W 005°54'0 0.0 1002.0 3.6 1.9
2015-Jan-20 18:00N 54°36' W 005°54'0 0.0 1002.4 3.6 2.0
2015-Jan-20 17:00N 54°36' W 005°54'0 0.0 1002.8 3.7 2.0
2015-Jan-20 16:00N 54°36' W 005°54'0 0.0 1003.5 3.6 1.7
2015-Jan-20 15:00N 54°36' W 005°54'0 0.0 1004.1 3.7 1.9
2015-Jan-20 14:00N 54°36' W 005°54'0 0.0 1005.0 3.9 1.1
2015-Jan-20 13:00N 54°36' W 005°54'0 0.0 1005.7 4.3-0.2
2015-Jan-20 12:00N 54°36' W 005°54'0 0.0 1006.2 4.0-1.0
2015-Jan-20 11:00N 54°36' W 005°54'0 0.0 1006.8 3.4-1.1
2015-Jan-20 10:00N 54°36' W 005°54'0 0.0 1007.4 2.6-0.9
2015-Jan-20 09:00N 54°36' W 005°54'9 4.6 1007.7 2.6-0.6
2015-Jan-20 07:00N 54°42' W 005°42'6 6.0 1007.5 4.6 0.1
2015-Jan-20 06:00N 54°48' W 005°42'6 6.0 1007.5 5.6 0.4
2015-Jan-20 05:00N 54°54' W 005°42'0 0.0 1007.4 4.5 0.2
2015-Jan-20 04:00N 54°54' W 005°42'3 3.5 1007.9 4.6-0.4
2015-Jan-20 03:00N 54°54' W 005°48'6 6.0 1008.0 4.0-1.9
2015-Jan-20 02:00N 55°00' W 005°48'0 0.0 1008.2 3.3-1.2
2015-Jan-20 01:00N 55°00' W 005°48'3 3.4 1008.5 3.8-0.1
2015-Jan-20 00:00N 55°00' W 005°54'6 6.0 1008.6 3.8-0.1
2015-Jan-19 23:00N 55°06' W 005°54'3 3.4 1008.6 4.0-0.1
2015-Jan-19 22:00N 55°06' W 006°00'6 6.0 1008.7 4.0-0.5
2015-Jan-19 21:00N 55°12' W 006°00'9 9.1 1008.7 4.5-0.1
2015-Jan-19 20:00N 55°18' W 006°12'0 0.0 1009.0 4.1-1.5
2015-Jan-19 19:00N 55°18' W 006°12'0 0.0 1009.9 4.1-1.8
2015-Jan-19 18:00N 55°18' W 006°12'7 6.9 1010.4 4.6-3.6
2015-Jan-19 17:00N 55°12' W 006°06'0 0.0 1011.0 3.3-3.5
2015-Jan-19 16:00N 55°12' W 006°06'0 0.0 1011.5 3.5-3.9
2015-Jan-19 15:00N 55°12' W 006°06'0 0.0 1012.2 3.1-3.1
2015-Jan-19 14:00N 55°12' W 006°06'0 0.0 1012.6 3.3-4.3
2015-Jan-19 13:00N 55°12' W 006°06'0 0.0 1013.7 3.5-3.9
2015-Jan-19 12:00N 55°12' W 006°06'6 6.0 1014.2 4.0-3.7
2015-Jan-19 11:00N 55°18' W 006°06'0 0.0 1014.9 4.3-4.3
2015-Jan-19 10:00N 55°18' W 006°06'0 0.0 1015.6 4.4-4.2
2015-Jan-19 09:00N 55°18' W 006°06'7 6.9 1016.3 3.7-2.2
2015-Jan-19 08:00N 55°12' W 006°12'0 0.0 1016.7 1.2-2.7
2015-Jan-19 07:00N 55°12' W 006°12'0 0.0 1017.3 0.7-3.3
2015-Jan-19 06:00N 55°12' W 006°12'7 6.9 1017.8 4.3-4.8
2015-Jan-19 05:00N 55°18' W 006°18'1010.2 1018.2 4.5-4.2
2015-Jan-19 04:00N 55°18' W 006°36'0 0.0 1018.7 4.8-2.9
2015-Jan-19 03:00N 55°18' W 006°36'0 0.0 1019.4 5.0-6.6
2015-Jan-19 02:00N 55°18' W 006°36'1211.9 1019.6 5.2-5.5
2015-Jan-19 01:00N 55°12' W 006°54'7 6.8 1020.8 5.0-5.0
2015-Jan-19 00:00N 55°12' W 006°42'3 3.4 1021.2 5.4-2.5
2015-Jan-18 23:00N 55°12' W 006°36'9 9.1 1021.2 5.1-2.4
2015-Jan-18 22:00N 55°18' W 006°24'7 6.8 1021.3 5.0-1.4
2015-Jan-18 21:00N 55°18' W 006°12'7 6.9 1021.1 4.9-2.4
2015-Jan-18 20:00N 55°12' W 006°06'3 3.4 1020.8 4.8-4.3
2015-Jan-18 19:00N 55°12' W 006°00'7 6.9 1019.8 5.0-5.1
2015-Jan-18 18:00N 55°06' W 005°54'6 6.0 1019.0 5.6-0.9
2015-Jan-18 17:00N 55°00' W 005°54'1010.3 1019.1 6.0-2.9
2015-Jan-18 16:00N 55°00' W 005°36'0 0.0 1018.0 5.8-2.8
2015-Jan-18 15:00N 55°00' W 005°36'0 0.0 1018.1 5.4-0.4
2015-Jan-18 14:00N 55°00' W 005°36'3 3.4 1017.7 5.6-0.4
2015-Jan-18 13:00N 55°00' W 005°42'7 6.9 1017.7 6.3-0.7
2015-Jan-18 12:00N 54°54' W 005°48'7 6.9 1016.3 6.3-2.6
2015-Jan-18 11:00N 54°48' W 005°42'7 6.9 1015.1 5.6-1.8
2015-Jan-18 10:00N 54°42' W 005°48'7 6.9 1014.6 5.5-0.3
2015-Jan-18 09:00N 54°36' W 005°54'0 0.0 1013.9 4.6-0.0
2015-Jan-18 06:00N 54°36' W 005°54'0 0.0 1010.4 2.7 0.5
2015-Jan-18 05:00N 54°36' W 005°54'0 0.0 1010.2 0.9-0.8
2015-Jan-18 04:00N 54°36' W 005°54'0 0.0 1010.4 0.5-1.6
2015-Jan-18 03:00N 54°36' W 005°54'0 0.0 1010.5 0.5-1.2
2015-Jan-18 01:00N 54°36' W 005°54'0 0.0 1010.7 1.2-0.7
2015-Jan-18 00:00N 54°36' W 005°54'0 0.0 1010.1 1.5-0.4
2015-Jan-17 23:00N 54°36' W 005°54'0 0.0 1009.7 1.5-0.5
2015-Jan-17 22:00N 54°36' W 005°54'0 0.0 1009.0 1.4-0.6
2015-Jan-17 21:00N 54°36' W 005°54'0 0.0 1008.6 1.5-0.6
2015-Jan-17 20:00N 54°36' W 005°54'0 0.0 1008.3 1.5-0.4
2015-Jan-17 19:00N 54°36' W 005°54'0 0.0 1008.0 2.0-0.1
2015-Jan-17 18:00N 54°36' W 005°54'0 0.0 1007.6 2.1-0.1
2015-Jan-17 17:00N 54°36' W 005°54'0 0.0 1007.4 2.5-0.3
2015-Jan-17 16:00N 54°36' W 005°54'0 0.0 1006.9 2.8-0.3
2015-Jan-17 15:00N 54°36' W 005°54'0 0.0 1006.4 3.2-0.2
2015-Jan-17 14:00N 54°36' W 005°54'0 0.0 1006.1 3.1-0.3
2015-Jan-17 13:00N 54°36' W 005°54'0 0.0 1006.0 3.1-0.0
2015-Jan-17 11:00N 54°36' W 005°54'0 0.0 1005.8 1.9-0.4
2015-Jan-17 09:00N 54°36' W 005°54'0 0.0 1005.8 1.6-0.5
2015-Jan-17 08:00N 54°36' W 005°54'0 0.0 1005.2 1.5-0.6
2015-Jan-17 07:00N 54°36' W 005°54'0 0.0 1005.1 1.7-0.5
2015-Jan-17 06:00N 54°36' W 005°54'0 0.0 1005.0 1.8-0.3
2015-Jan-17 05:00N 54°36' W 005°54'   1005.4 1.8-0.2
Track history (hours):
 
Tides and Currents Weather Stations Pressure Air Temp Water Temp Dewpoint Dewpoint Depression Visibility Wind Speed Wind Dir Waves Ship Positions

Callsign AMOUK29 (name unknown)

Last reported at 2015-Jan-27 05:00 UTC. Time now 2015-Jan-27 08:25 UTC.
Position N 54°36' W 005°54'.

Barometer 1026.9 mb
Air temperature 5.9 ° C
Dewpoint 4.4 ° C

Date/timePositionNaut miles runAvg speedWind from/ knotsBaromVisibWave heightAir tempDewpointWater temp
2015-Jan-27 05:00N 54°36' W 005°54'0 0.0 1026.9 5.9 4.4
2015-Jan-27 04:00N 54°36' W 005°54'0 0.0 1027.3 6.1 4.3
2015-Jan-27 03:00N 54°36' W 005°54'0 0.0 1027.8 6.2 4.2
2015-Jan-27 02:00N 54°36' W 005°54'0 0.0 1028.0 6.1 4.2
2015-Jan-27 01:00N 54°36' W 005°54'0 0.0 1027.8 6.1 3.9
2015-Jan-27 00:00N 54°36' W 005°54'0 0.0 1028.3 5.8 3.6
2015-Jan-26 23:00N 54°36' W 005°54'0 0.0 1028.3 5.8 3.2
2015-Jan-26 22:00N 54°36' W 005°54'0 0.0 1028.1 5.6 3.1
2015-Jan-26 21:00N 54°36' W 005°54'0 0.0 1028.4 5.2 3.1
2015-Jan-26 20:00N 54°36' W 005°54'0 0.0 1028.3 5.8 3.2
2015-Jan-26 18:00N 54°36' W 005°54'0 0.0 1027.1 6.8 2.1
2015-Jan-26 17:00N 54°36' W 005°54'0 0.0 1026.3 6.9 1.9
2015-Jan-26 16:00N 54°36' W 005°54'0 0.0 1025.6 7.3 1.8
2015-Jan-26 15:00N 54°36' W 005°54'0 0.0 1025.0 7.4 2.3
2015-Jan-26 14:00N 54°36' W 005°54'0 0.0 1024.8 7.3 2.1
2015-Jan-26 12:00N 54°36' W 005°54'0 0.0 1024.5 6.7 1.8
2015-Jan-26 09:00N 54°36' W 005°54'0 0.0 1022.4 5.4 1.2
2015-Jan-26 08:00N 54°36' W 005°54'0 0.0 1022.2 5.1 1.4
2015-Jan-26 07:00N 54°36' W 005°54'0 0.0 1021.5 5.6 1.4
2015-Jan-26 06:00N 54°36' W 005°54'0 0.0 1021.3 5.6 1.4
2015-Jan-26 05:00N 54°36' W 005°54'0 0.0 1020.7 5.9 1.5
2015-Jan-26 04:00N 54°36' W 005°54'0 0.0 1020.4 6.1 2.4
2015-Jan-26 03:00N 54°36' W 005°54'0 0.0 1020.1 7.1 3.5
2015-Jan-26 02:00N 54°36' W 005°54'0 0.0 1019.8 7.8 3.3
2015-Jan-26 01:00N 54°36' W 005°54'0 0.0 1019.5 8.1 4.4
2015-Jan-26 00:00N 54°36' W 005°54'0 0.0 1019.3 8.3 6.2
2015-Jan-25 23:00N 54°36' W 005°54'0 0.0 1019.3 8.7 6.3
2015-Jan-25 22:00N 54°36' W 005°54'0 0.0 1019.0 8.9 6.5
2015-Jan-25 21:00N 54°36' W 005°54'0 0.0 1018.8 9.6 8.1
2015-Jan-25 20:00N 54°36' W 005°54'0 0.0 1018.6 9.7 8.2
2015-Jan-25 19:00N 54°36' W 005°54'0 0.0 1018.8 10.3 8.0
2015-Jan-25 17:00N 54°36' W 005°54'0 0.0 1018.8 10.9 7.6
2015-Jan-25 15:00N 54°36' W 005°54'0 0.0 1019.5 11.0 7.8
2015-Jan-25 14:00N 54°36' W 005°54'0 0.0 1019.6 10.3 7.8
2015-Jan-25 13:00N 54°36' W 005°54'0 0.0 1021.0 9.3 7.2
2015-Jan-25 06:00N 54°36' W 005°54'0 0.0 1025.0 6.5 3.6
2015-Jan-25 05:00N 54°36' W 005°54'0 0.0 1024.9 6.2 2.8
2015-Jan-25 02:00N 54°36' W 005°54'0 0.0 1026.1 5.7 1.9
2015-Jan-25 01:00N 54°36' W 005°54'0 0.0 1026.9 5.3 1.5
2015-Jan-25 00:00N 54°36' W 005°54'0 0.0 1027.3 5.2 1.3
2015-Jan-24 23:00N 54°36' W 005°54'0 0.0 1027.7 5.1 1.3
2015-Jan-24 22:00N 54°36' W 005°54'0 0.0 1028.4 5.1 1.2
2015-Jan-24 21:00N 54°36' W 005°54'0 0.0 1028.6 5.3 1.4
2015-Jan-24 20:00N 54°36' W 005°54'0 0.0 1029.1 5.3 1.3
2015-Jan-24 19:00N 54°36' W 005°54'0 0.0 1028.9 5.3 1.4
2015-Jan-24 18:00N 54°36' W 005°54'0 0.0 1028.4 5.5 1.6
2015-Jan-24 16:00N 54°36' W 005°54'0 0.0 1027.5 6.2 1.8
2015-Jan-24 15:00N 54°36' W 005°54'0 0.0 1027.2 6.2 1.7
2015-Jan-24 14:00N 54°36' W 005°54'0 0.0 1027.2 5.8 1.0
2015-Jan-24 13:00N 54°36' W 005°54'0 0.0 1027.0 4.9 0.4
2015-Jan-24 12:00N 54°36' W 005°54'0 0.0 1026.6 4.7 0.4
2015-Jan-24 11:00N 54°36' W 005°54'0 0.0 1025.9 4.8-0.5
2015-Jan-24 05:00N 54°36' W 005°54'0 0.0 1021.7 2.9-0.3
2015-Jan-24 03:00N 54°36' W 005°54'0 0.0 1020.4 3.0-0.3
2015-Jan-24 02:00N 54°36' W 005°54'0 0.0 1019.5 3.2-0.5
2015-Jan-24 01:00N 54°36' W 005°54'0 0.0 1018.7 3.3-0.4
2015-Jan-23 22:00N 54°36' W 005°54'0 0.0 1016.2 4.2 0.5
2015-Jan-23 21:00N 54°36' W 005°54'0 0.0 1015.4 4.7 0.9
2015-Jan-23 20:00N 54°36' W 005°54'0 0.0 1014.9 5.3 1.1
2015-Jan-23 19:00N 54°36' W 005°54'0 0.0 1014.0 5.9 1.6
2015-Jan-23 18:00N 54°36' W 005°54'0 0.0 1013.2 6.9 3.1
2015-Jan-23 17:00N 54°36' W 005°54'0 0.0 1012.1 7.2 3.7
2015-Jan-23 16:00N 54°36' W 005°54'0 0.0 1011.1 8.0 6.8
2015-Jan-23 15:00N 54°36' W 005°54'0 0.0 1010.6 9.2 7.9
2015-Jan-23 14:00N 54°36' W 005°54'0 0.0 1010.8 9.1 7.5
2015-Jan-23 13:00N 54°36' W 005°54'0 0.0 1011.0 8.7 7.0
2015-Jan-23 12:00N 54°36' W 005°54'0 0.0 1012.0 7.8 6.2
2015-Jan-23 11:00N 54°36' W 005°54'0 0.0 1012.7 7.5 5.6
2015-Jan-23 10:00N 54°36' W 005°54'0 0.0 1013.0 6.7 5.0
2015-Jan-23 08:00N 54°36' W 005°54'0 0.0 1014.4 6.0 3.7
2015-Jan-23 07:00N 54°36' W 005°54'0 0.0 1015.4 5.8 3.2
2015-Jan-23 06:00N 54°36' W 005°54'0 0.0 1016.3 5.3 2.8
2015-Jan-23 04:00N 54°36' W 005°54'0 0.0 1017.9 4.3 1.9
2015-Jan-23 03:00N 54°36' W 005°54'0 0.0 1018.5 3.8 1.5
2015-Jan-23 02:00N 54°36' W 005°54'0 0.0 1019.5 3.0 0.8
2015-Jan-23 01:00N 54°36' W 005°54'0 0.0 1019.6 2.6 0.5
2015-Jan-23 00:00N 54°36' W 005°54'0 0.0 1020.4 2.8 0.5
2015-Jan-22 23:00N 54°36' W 005°54'0 0.0 1021.0 2.8 0.3
2015-Jan-22 21:00N 54°36' W 005°54'0 0.0 1021.6 3.4 0.2
2015-Jan-22 20:00N 54°36' W 005°54'0 0.0 1022.1 3.2 0.7
2015-Jan-22 18:00N 54°36' W 005°54'0 0.0 1021.6 4.3 1.5
2015-Jan-22 17:00N 54°36' W 005°54'0 0.0 1021.4 5.0 1.6
2015-Jan-22 16:00N 54°36' W 005°54'0 0.0 1021.0 5.9 1.6
2015-Jan-22 15:00N 54°36' W 005°54'0 0.0 1020.9 6.4 1.3
2015-Jan-22 14:00N 54°36' W 005°54'0 0.0 1020.6 6.6 0.4
2015-Jan-22 13:00N 54°36' W 005°54'0 0.0 1020.2 6.3 1.0
2015-Jan-22 12:00N 54°36' W 005°54'0 0.0 1020.9 3.7 0.5
2015-Jan-22 11:00N 54°36' W 005°54'0 0.0 1021.0 2.4 0.4
2015-Jan-22 09:00N 54°36' W 005°54'0 0.0 1019.7 1.1-1.2
2015-Jan-22 04:00N 54°36' W 005°54'0 0.0 1017.4 1.7 0.8
2015-Jan-22 03:00N 54°36' W 005°54'0 0.0 1016.9 1.9 1.0
2015-Jan-22 02:00N 54°36' W 005°54'0 0.0 1016.3 1.9 1.2
2015-Jan-22 01:00N 54°36' W 005°54'0 0.0 1015.8 1.7 1.1
2015-Jan-22 00:00N 54°36' W 005°54'0 0.0 1015.4 1.5 0.9
2015-Jan-21 23:00N 54°36' W 005°54'0 0.0 1015.2 1.3 0.7
2015-Jan-21 22:00N 54°36' W 005°54'0 0.0 1014.7 1.5 0.9
2015-Jan-21 18:00N 54°36' W 005°54'0 0.0 1012.1 2.2 1.1
2015-Jan-21 17:00N 54°36' W 005°54'0 0.0 1011.2 2.9 1.5
2015-Jan-21 16:00N 54°36' W 005°54'0 0.0 1010.4 3.0 0.6
2015-Jan-21 15:00N 54°36' W 005°54'0 0.0 1009.4 5.1 1.4
2015-Jan-21 14:00N 54°36' W 005°54'0 0.0 1009.1 4.8 2.1
2015-Jan-21 13:00N 54°36' W 005°54'0 0.0 1008.8 4.6 2.2
2015-Jan-21 12:00N 54°36' W 005°54'0 0.0 1008.5 4.2 2.3
2015-Jan-21 11:00N 54°36' W 005°54'0 0.0 1008.4 3.9 2.0
2015-Jan-21 10:00N 54°36' W 005°54'0 0.0 1007.8 4.4 2.2
2015-Jan-21 09:00N 54°36' W 005°54'0 0.0 1007.0 4.3 2.2
2015-Jan-21 06:00N 54°36' W 005°54'0 0.0 1004.7 4.0 2.3
2015-Jan-21 03:00N 54°36' W 005°54'0 0.0 1003.3 3.4 1.7
2015-Jan-21 02:00N 54°36' W 005°54'0 0.0 1003.0 3.4 1.8
2015-Jan-21 01:00N 54°36' W 005°54'0 0.0 1002.6 4.0 2.4
2015-Jan-21 00:00N 54°36' W 005°54'0 0.0 1002.4 3.7 2.3
2015-Jan-20 23:00N 54°36' W 005°54'0 0.0 1002.2 3.4 2.1
2015-Jan-20 22:00N 54°36' W 005°54'0 0.0 1002.0 3.3 1.9
2015-Jan-20 21:00N 54°36' W 005°54'0 0.0 1002.0 3.2 1.7
2015-Jan-20 20:00N 54°36' W 005°54'0 0.0 1001.9 3.5 1.7
2015-Jan-20 19:00N 54°36' W 005°54'0 0.0 1002.0 3.6 1.9
2015-Jan-20 18:00N 54°36' W 005°54'0 0.0 1002.4 3.6 2.0
2015-Jan-20 17:00N 54°36' W 005°54'0 0.0 1002.8 3.7 2.0
2015-Jan-20 16:00N 54°36' W 005°54'0 0.0 1003.5 3.6 1.7
2015-Jan-20 15:00N 54°36' W 005°54'0 0.0 1004.1 3.7 1.9
2015-Jan-20 14:00N 54°36' W 005°54'0 0.0 1005.0 3.9 1.1
2015-Jan-20 13:00N 54°36' W 005°54'0 0.0 1005.7 4.3-0.2
2015-Jan-20 12:00N 54°36' W 005°54'0 0.0 1006.2 4.0-1.0
2015-Jan-20 11:00N 54°36' W 005°54'0 0.0 1006.8 3.4-1.1
2015-Jan-20 10:00N 54°36' W 005°54'0 0.0 1007.4 2.6-0.9
2015-Jan-20 09:00N 54°36' W 005°54'9 4.6 1007.7 2.6-0.6
2015-Jan-20 07:00N 54°42' W 005°42'6 6.0 1007.5 4.6 0.1
2015-Jan-20 06:00N 54°48' W 005°42'6 6.0 1007.5 5.6 0.4
2015-Jan-20 05:00N 54°54' W 005°42'0 0.0 1007.4 4.5 0.2
2015-Jan-20 04:00N 54°54' W 005°42'3 3.5 1007.9 4.6-0.4
2015-Jan-20 03:00N 54°54' W 005°48'6 6.0 1008.0 4.0-1.9
2015-Jan-20 02:00N 55°00' W 005°48'0 0.0 1008.2 3.3-1.2
2015-Jan-20 01:00N 55°00' W 005°48'3 3.4 1008.5 3.8-0.1
2015-Jan-20 00:00N 55°00' W 005°54'6 6.0 1008.6 3.8-0.1
2015-Jan-19 23:00N 55°06' W 005°54'3 3.4 1008.6 4.0-0.1
2015-Jan-19 22:00N 55°06' W 006°00'6 6.0 1008.7 4.0-0.5
2015-Jan-19 21:00N 55°12' W 006°00'9 9.1 1008.7 4.5-0.1
2015-Jan-19 20:00N 55°18' W 006°12'0 0.0 1009.0 4.1-1.5
2015-Jan-19 19:00N 55°18' W 006°12'0 0.0 1009.9 4.1-1.8
2015-Jan-19 18:00N 55°18' W 006°12'7 6.9 1010.4 4.6-3.6
2015-Jan-19 17:00N 55°12' W 006°06'0 0.0 1011.0 3.3-3.5
2015-Jan-19 16:00N 55°12' W 006°06'0 0.0 1011.5 3.5-3.9
2015-Jan-19 15:00N 55°12' W 006°06'0 0.0 1012.2 3.1-3.1
2015-Jan-19 14:00N 55°12' W 006°06'0 0.0 1012.6 3.3-4.3
2015-Jan-19 13:00N 55°12' W 006°06'0 0.0 1013.7 3.5-3.9
2015-Jan-19 12:00N 55°12' W 006°06'6 6.0 1014.2 4.0-3.7
2015-Jan-19 11:00N 55°18' W 006°06'0 0.0 1014.9 4.3-4.3
2015-Jan-19 10:00N 55°18' W 006°06'0 0.0 1015.6 4.4-4.2
2015-Jan-19 09:00N 55°18' W 006°06'7 6.9 1016.3 3.7-2.2
2015-Jan-19 08:00N 55°12' W 006°12'0 0.0 1016.7 1.2-2.7
2015-Jan-19 07:00N 55°12' W 006°12'0 0.0 1017.3 0.7-3.3
2015-Jan-19 06:00N 55°12' W 006°12'7 6.9 1017.8 4.3-4.8
2015-Jan-19 05:00N 55°18' W 006°18'1010.2 1018.2 4.5-4.2
2015-Jan-19 04:00N 55°18' W 006°36'0 0.0 1018.7 4.8-2.9
2015-Jan-19 03:00N 55°18' W 006°36'0 0.0 1019.4 5.0-6.6
2015-Jan-19 02:00N 55°18' W 006°36'1211.9 1019.6 5.2-5.5
2015-Jan-19 01:00N 55°12' W 006°54'7 6.8 1020.8 5.0-5.0
2015-Jan-19 00:00N 55°12' W 006°42'3 3.4 1021.2 5.4-2.5
2015-Jan-18 23:00N 55°12' W 006°36'9 9.1 1021.2 5.1-2.4
2015-Jan-18 22:00N 55°18' W 006°24'7 6.8 1021.3 5.0-1.4
2015-Jan-18 21:00N 55°18' W 006°12'7 6.9 1021.1 4.9-2.4
2015-Jan-18 20:00N 55°12' W 006°06'3 3.4 1020.8 4.8-4.3
2015-Jan-18 19:00N 55°12' W 006°00'7 6.9 1019.8 5.0-5.1
2015-Jan-18 18:00N 55°06' W 005°54'6 6.0 1019.0 5.6-0.9
2015-Jan-18 17:00N 55°00' W 005°54'1010.3 1019.1 6.0-2.9
2015-Jan-18 16:00N 55°00' W 005°36'0 0.0 1018.0 5.8-2.8
2015-Jan-18 15:00N 55°00' W 005°36'0 0.0 1018.1 5.4-0.4
2015-Jan-18 14:00N 55°00' W 005°36'3 3.4 1017.7 5.6-0.4
2015-Jan-18 13:00N 55°00' W 005°42'7 6.9 1017.7 6.3-0.7
2015-Jan-18 12:00N 54°54' W 005°48'7 6.9 1016.3 6.3-2.6
2015-Jan-18 11:00N 54°48' W 005°42'7 6.9 1015.1 5.6-1.8
2015-Jan-18 10:00N 54°42' W 005°48'7 6.9 1014.6 5.5-0.3
2015-Jan-18 09:00N 54°36' W 005°54'0 0.0 1013.9 4.6-0.0
2015-Jan-18 06:00N 54°36' W 005°54'0 0.0 1010.4 2.7 0.5
2015-Jan-18 05:00N 54°36' W 005°54'0 0.0 1010.2 0.9-0.8
2015-Jan-18 04:00N 54°36' W 005°54'0 0.0 1010.4 0.5-1.6
2015-Jan-18 03:00N 54°36' W 005°54'0 0.0 1010.5 0.5-1.2
2015-Jan-18 01:00N 54°36' W 005°54'0 0.0 1010.7 1.2-0.7
2015-Jan-18 00:00N 54°36' W 005°54'0 0.0 1010.1 1.5-0.4
2015-Jan-17 23:00N 54°36' W 005°54'0 0.0 1009.7 1.5-0.5
2015-Jan-17 22:00N 54°36' W 005°54'0 0.0 1009.0 1.4-0.6
2015-Jan-17 21:00N 54°36' W 005°54'0 0.0 1008.6 1.5-0.6
2015-Jan-17 20:00N 54°36' W 005°54'0 0.0 1008.3 1.5-0.4
2015-Jan-17 19:00N 54°36' W 005°54'0 0.0 1008.0 2.0-0.1
2015-Jan-17 18:00N 54°36' W 005°54'0 0.0 1007.6 2.1-0.1
2015-Jan-17 17:00N 54°36' W 005°54'0 0.0 1007.4 2.5-0.3
2015-Jan-17 16:00N 54°36' W 005°54'0 0.0 1006.9 2.8-0.3
2015-Jan-17 15:00N 54°36' W 005°54'0 0.0 1006.4 3.2-0.2
2015-Jan-17 14:00N 54°36' W 005°54'0 0.0 1006.1 3.1-0.3
2015-Jan-17 13:00N 54°36' W 005°54'0 0.0 1006.0 3.1-0.0
2015-Jan-17 11:00N 54°36' W 005°54'0 0.0 1005.8 1.9-0.4
2015-Jan-17 09:00N 54°36' W 005°54'0 0.0 1005.8 1.6-0.5
2015-Jan-17 08:00N 54°36' W 005°54'0 0.0 1005.2 1.5-0.6
2015-Jan-17 07:00N 54°36' W 005°54'0 0.0 1005.1 1.7-0.5
2015-Jan-17 06:00N 54°36' W 005°54'0 0.0 1005.0 1.8-0.3
2015-Jan-17 05:00N 54°36' W 005°54'   1005.4 1.8-0.2

Dump ship's entire track history